Terminal Aerodrome Forecast
Issued by NWS

Home | Current Version | Previous Version | Text Only | Print | Product List | Glossary On
Versions: 1 2 3 4 5 6 7 8 9 10 11 12 13 14 15 16 17 18 19 20 21 22 23 24 25 26 27 28 29 30 31 32 33 34
000
FTAK31 PANC 271130 AAA
TAFADU
TAF AMD
PADU 271130Z 2712/2812 12011KT P6SM VCSH FEW007 BKN015 OVC030
      TEMPO 2712/2716 FEW007 SCT015 OVC030
     FM280000 08004KT P6SM SCT015 OVC025
     FM280500 12009KT 6SM -RA BR BKN015 OVC025
     FM280900 12012KT P6SM VCSH SCT015 OVC025
      AMD NOT SKED=

USA.gov is the U.S. government's official web portal to all federal, state and local government web resources and services.